createdAt,value
2023-07-07T00:00:57.263Z,7.22
2023-07-07T00:06:03.296Z,7.53
2023-07-07T00:11:06.020Z,7.45
2023-07-07T00:16:07.745Z,7.15
2023-07-07T00:21:09.439Z,7.00
2023-07-07T00:26:16.036Z,6.47
2023-07-07T00:31:23.761Z,7.75
2023-07-07T00:36:25.454Z,6.88
2023-07-07T00:41:29.121Z,7.25
2023-07-07T00:46:30.987Z,6.65
2023-07-07T00:51:36.707Z,7.05
2023-07-07T00:56:43.676Z,6.55
2023-07-07T01:01:52.537Z,6.97
2023-07-07T01:07:01.088Z,6.90
2023-07-07T01:12:02.808Z,6.32
2023-07-07T01:17:30.270Z,6.25
2023-07-07T01:22:44.326Z,6.40
2023-07-07T01:28:04.800Z,6.60
2023-07-07T01:33:15.016Z,5.97
2023-07-07T01:38:37.256Z,5.85
2023-07-07T01:43:54.656Z,5.93
2023-07-07T01:49:01.733Z,6.15
2023-07-07T01:54:07.935Z,6.03
2023-07-07T01:59:09.683Z,6.18
2023-07-07T02:04:11.509Z,6.32
2023-07-07T02:09:13.170Z,6.20
2023-07-07T02:14:15.122Z,6.25
2023-07-07T02:19:17.868Z,5.95
2023-07-07T02:24:19.538Z,6.07
2023-07-07T02:29:21.198Z,5.78
2023-07-07T02:34:22.971Z,5.40
2023-07-07T02:39:24.688Z,5.70
2023-07-07T02:44:29.420Z,5.93
2023-07-07T02:49:31.098Z,4.78
2023-07-07T02:54:32.824Z,5.80
2023-07-07T02:59:36.766Z,5.65
2023-07-07T03:04:38.622Z,5.70
2023-07-07T03:09:40.997Z,5.72
2023-07-07T03:14:42.685Z,4.97
2023-07-07T03:19:44.661Z,5.70
2023-07-07T03:24:53.702Z,5.57
2023-07-07T03:30:26.493Z,5.57
2023-07-07T03:35:34.761Z,5.70
2023-07-07T03:40:37.171Z,5.88
2023-07-07T03:45:38.866Z,5.40
2023-07-07T03:50:40.617Z,5.25
2023-07-07T03:55:44.776Z,5.57
2023-07-07T04:00:47.965Z,5.68
2023-07-07T04:05:51.164Z,5.45
2023-07-07T04:11:06.946Z,5.75
2023-07-07T04:16:12.021Z,5.57
2023-07-07T04:21:16.627Z,5.78
2023-07-07T04:26:19.799Z,6.03
2023-07-07T04:31:25.248Z,5.97
2023-07-07T04:36:27.033Z,5.57
2023-07-07T04:41:28.771Z,5.95
2023-07-07T04:46:32.284Z,5.38
2023-07-07T04:51:37.684Z,5.47
2023-07-07T04:56:41.870Z,5.65
2023-07-07T05:01:43.950Z,6.00
2023-07-07T05:06:45.618Z,5.60
2023-07-07T05:11:47.327Z,6.03
2023-07-07T05:16:49.000Z,6.28
2023-07-07T05:21:50.660Z,5.80
2023-07-07T05:26:52.335Z,5.60
2023-07-07T05:31:54.039Z,6.00
2023-07-07T05:36:55.833Z,6.05
2023-07-07T05:41:57.649Z,6.53
2023-07-07T05:46:59.384Z,6.60
2023-07-07T05:52:01.070Z,7.88
2023-07-07T05:57:03.603Z,7.35
2023-07-07T06:02:05.722Z,7.70
2023-07-07T06:07:07.505Z,8.13
2023-07-07T06:12:10.259Z,8.25
2023-07-07T06:17:11.940Z,8.35
2023-07-07T06:22:13.600Z,8.52
2023-07-07T06:27:15.331Z,9.10
2023-07-07T06:32:17.027Z,8.73
2023-07-07T06:37:19.001Z,9.55
2023-07-07T06:42:20.642Z,9.63
2023-07-07T06:47:31.360Z,10.63
2023-07-07T06:52:33.115Z,10.77
2023-07-07T06:57:34.808Z,11.25
2023-07-07T07:02:36.609Z,11.07
2023-07-07T07:07:38.456Z,10.73
2023-07-07T07:12:40.391Z,11.95
2023-07-07T07:17:45.362Z,11.43
2023-07-07T07:22:48.026Z,12.27
2023-07-07T07:27:49.711Z,12.63
2023-07-07T07:32:52.136Z,11.73
2023-07-07T07:37:53.873Z,11.75
2023-07-07T07:42:55.586Z,12.40
2023-07-07T07:47:57.275Z,12.38
2023-07-07T07:52:59.264Z,13.07
2023-07-07T07:58:03.030Z,12.45
2023-07-07T08:03:04.808Z,12.60
2023-07-07T08:08:06.993Z,12.10
2023-07-07T08:13:08.746Z,12.32
2023-07-07T08:18:10.395Z,12.23
2023-07-07T08:23:12.119Z,12.38
2023-07-07T08:28:14.939Z,12.20
2023-07-07T08:33:17.232Z,12.40
2023-07-07T08:38:18.928Z,12.35
2023-07-07T08:43:22.255Z,12.30
2023-07-07T08:48:33.326Z,12.15
2023-07-07T08:53:40.807Z,12.32
2023-07-07T08:59:03.974Z,12.00
2023-07-07T09:04:43.720Z,12.43
2023-07-07T09:10:07.297Z,13.27
2023-07-07T09:15:16.246Z,12.63
2023-07-07T09:20:20.671Z,12.93
2023-07-07T09:25:37.588Z,12.13
2023-07-07T09:31:22.369Z,13.38
2023-07-07T09:36:35.712Z,12.55
2023-07-07T09:41:46.447Z,12.13
2023-07-07T09:46:59.777Z,12.07
2023-07-07T09:52:25.045Z,12.27
2023-07-07T09:57:29.783Z,11.82
2023-07-07T10:02:32.266Z,12.65
2023-07-07T10:07:39.557Z,12.80
2023-07-07T10:12:42.200Z,12.25
2023-07-07T10:17:57.429Z,13.07
2023-07-07T10:23:00.940Z,13.32
2023-07-07T10:28:02.916Z,12.75
2023-07-07T10:33:05.093Z,12.63
2023-07-07T10:38:10.979Z,12.90
2023-07-07T10:43:15.002Z,12.68
2023-07-07T10:48:17.430Z,12.00
2023-07-07T10:53:33.055Z,12.80
2023-07-07T10:58:40.610Z,12.43
2023-07-07T11:03:43.137Z,13.00
2023-07-07T11:09:03.027Z,12.77
2023-07-07T11:14:25.872Z,13.13
2023-07-07T11:19:40.246Z,13.05
2023-07-07T11:24:56.886Z,12.40
2023-07-07T11:30:24.388Z,12.15
2023-07-07T11:35:35.344Z,12.18
2023-07-07T11:40:48.976Z,12.57
2023-07-07T11:46:12.063Z,12.20
2023-07-07T11:51:41.054Z,12.20
2023-07-07T11:56:51.704Z,12.05
2023-07-07T12:01:58.265Z,11.75
2023-07-07T12:07:06.616Z,11.40
2023-07-07T12:12:40.064Z,11.30
2023-07-07T12:17:51.799Z,11.55
2023-07-07T12:22:56.187Z,12.00
2023-07-07T12:27:58.313Z,11.75
2023-07-07T12:33:00.697Z,11.75
2023-07-07T12:38:27.777Z,11.85
2023-07-07T12:43:37.231Z,12.10
2023-07-07T12:48:39.135Z,11.98
2023-07-07T12:53:46.835Z,12.20
2023-07-07T12:58:53.730Z,12.40
2023-07-07T13:03:55.594Z,11.85
2023-07-07T13:09:12.878Z,12.43
2023-07-07T13:14:27.758Z,11.75
2023-07-07T13:19:31.138Z,12.10
2023-07-07T13:24:41.288Z,11.90
2023-07-07T13:29:43.405Z,11.85
2023-07-07T13:34:45.071Z,11.65
2023-07-07T13:39:46.796Z,12.02
2023-07-07T13:44:48.467Z,11.50
2023-07-07T13:49:53.602Z,11.02
2023-07-07T13:54:57.304Z,11.45
2023-07-07T14:00:04.800Z,12.07
2023-07-07T14:05:17.971Z,11.93
2023-07-07T14:10:39.652Z,12.40
2023-07-07T14:16:06.661Z,12.07
2023-07-07T14:21:12.891Z,11.90
2023-07-07T14:26:21.221Z,12.30
2023-07-07T14:31:23.206Z,11.73
2023-07-07T14:36:36.719Z,11.82
2023-07-07T14:41:41.637Z,11.90
2023-07-07T14:46:43.397Z,11.80
2023-07-07T14:51:51.893Z,11.63
2023-07-07T14:56:56.129Z,12.57
2023-07-07T15:02:26.987Z,13.30
2023-07-07T15:07:30.263Z,12.73
2023-07-07T15:12:33.023Z,12.00
2023-07-07T15:17:34.806Z,11.75
2023-07-07T15:22:36.535Z,12.27
2023-07-07T15:27:38.721Z,11.93
2023-07-07T15:32:43.458Z,11.90
2023-07-07T15:37:49.813Z,11.70
2023-07-07T15:42:53.198Z,12.00
2023-07-07T15:47:57.745Z,12.45
2023-07-07T15:52:59.526Z,11.90
2023-07-07T15:58:06.166Z,12.90
2023-07-07T16:03:08.245Z,12.38
2023-07-07T16:08:14.452Z,12.55
2023-07-07T16:13:17.815Z,12.75
2023-07-07T16:18:19.475Z,12.63
2023-07-07T16:23:21.157Z,13.73
2023-07-07T16:28:23.312Z,14.30
2023-07-07T16:33:25.173Z,13.90
2023-07-07T16:38:26.854Z,14.00
2023-07-07T16:43:28.594Z,13.98
2023-07-07T16:48:41.773Z,14.00
2023-07-07T16:53:49.870Z,14.20
2023-07-07T16:58:52.079Z,14.30
2023-07-07T17:03:53.923Z,14.88
2023-07-07T17:08:57.117Z,15.20
2023-07-07T17:14:02.199Z,15.05
2023-07-07T17:19:21.753Z,14.55
2023-07-07T17:24:24.205Z,14.48
2023-07-07T17:29:25.928Z,14.57
2023-07-07T17:34:27.567Z,14.50
2023-07-07T17:39:29.218Z,14.48
2023-07-07T17:44:30.862Z,14.05
2023-07-07T17:49:34.955Z,14.20
2023-07-07T17:54:36.600Z,14.50
2023-07-07T17:59:38.262Z,14.73
2023-07-07T18:04:42.169Z,14.77
2023-07-07T18:09:43.829Z,14.90
2023-07-07T18:14:45.478Z,14.60
2023-07-07T18:20:54.735Z,14.98
2023-07-07T18:25:10.241Z,14.20
2023-07-07T18:30:25.773Z,14.23
2023-07-07T18:40:34.814Z,14.90
2023-07-07T18:45:37.056Z,14.20
2023-07-07T18:50:40.274Z,14.35
2023-07-07T18:55:44.289Z,14.25
2023-07-07T19:00:51.086Z,14.43
2023-07-07T19:05:55.819Z,14.25
2023-07-07T19:10:57.610Z,14.18
2023-07-07T19:16:01.986Z,14.05
2023-07-07T19:21:13.320Z,14.20
2023-07-07T19:26:31.578Z,14.02
2023-07-07T19:31:34.498Z,13.95
2023-07-07T19:36:44.025Z,14.25
2023-07-07T19:41:47.298Z,13.82
2023-07-07T19:46:50.860Z,13.77
2023-07-07T19:51:54.852Z,14.20
2023-07-07T19:56:56.906Z,14.07
2023-07-07T20:01:58.775Z,14.20
2023-07-07T20:07:03.623Z,13.90
2023-07-07T20:12:11.919Z,13.30
2023-07-07T20:17:13.908Z,13.32
2023-07-07T20:22:15.721Z,14.20
2023-07-07T20:27:17.402Z,14.18
2023-07-07T20:32:19.121Z,13.93
2023-07-07T20:37:20.800Z,14.40
2023-07-07T20:42:22.535Z,13.05
2023-07-07T20:47:24.252Z,12.60
2023-07-07T20:52:28.310Z,13.18
2023-07-07T20:57:30.047Z,11.82
2023-07-07T21:02:31.749Z,12.52
2023-07-07T21:07:33.572Z,12.20
2023-07-07T21:12:35.405Z,12.40
2023-07-07T21:17:37.383Z,12.30
2023-07-07T21:22:39.401Z,12.45
2023-07-07T21:27:41.957Z,11.93
2023-07-07T21:32:43.921Z,11.63
2023-07-07T21:37:47.006Z,11.43
2023-07-07T21:42:50.062Z,12.35
2023-07-07T21:48:04.586Z,11.35
2023-07-07T21:53:10.135Z,11.43
2023-07-07T21:58:14.144Z,10.68
2023-07-07T22:03:18.541Z,10.98
2023-07-07T22:08:20.458Z,10.82
2023-07-07T22:13:24.391Z,10.88
2023-07-07T22:18:26.297Z,11.02
2023-07-07T22:23:28.275Z,10.90
2023-07-07T22:28:33.264Z,11.00
2023-07-07T22:33:35.746Z,9.93
2023-07-07T22:38:37.717Z,9.65
2023-07-07T22:43:39.551Z,10.07
2023-07-07T22:48:41.459Z,9.80
2023-07-07T22:53:43.491Z,9.93
2023-07-07T22:58:45.372Z,9.20
2023-07-07T23:03:50.382Z,9.98
2023-07-07T23:08:59.843Z,9.65
2023-07-07T23:14:01.799Z,8.70
2023-07-07T23:19:11.488Z,9.52
2023-07-07T23:24:13.349Z,8.65
2023-07-07T23:29:15.824Z,8.73
2023-07-07T23:34:17.694Z,9.20
2023-07-07T23:39:19.548Z,8.75
2023-07-07T23:44:21.414Z,9.15
2023-07-07T23:49:23.260Z,9.05
2023-07-07T23:54:25.110Z,8.13
2023-07-07T23:59:29.132Z,8.38
